Time;durP1;ratioP1;P1;durP2;ratioP2;P2;SDS_P1;SDS_P2;PMS_P1;PMS_P2;Temp;Humidity;BMP_temperature;BMP_pressure;BME280_temperature;BME280_humidity;BME280_pressure;Samples;Min_cycle;Max_cycle;Signal;HPM_P1;HPM_P2
2021/06/20 00:01:19;;;;;;;10.93;8.18;;;;;;;24.17;97.06;100380.56;714008;1202;115705;-76
2021/06/20 00:16:22;;;;;;;10.88;7.75;;;;;;;24.12;97.94;100367.02;713784;1202;115560;-77
2021/06/20 00:31:24;;;;;;;12.13;9.10;;;;;;;24.08;97.53;100361.27;712625;1202;115539;-77
2021/06/20 00:46:26;;;;;;;12.33;9.23;;;;;;;24.02;98.58;100356.80;714063;1202;113966;-77
2021/06/20 01:01:33;;;;;;;11.63;8.83;;;;;;;23.72;100.00;100336.88;712612;1203;114121;-76
2021/06/20 01:16:35;;;;;;;11.27;9.17;;;;;;;23.66;100.00;100327.05;714030;1205;114796;-77
2021/06/20 01:31:38;;;;;;;14.95;9.50;;;;;;;23.37;100.00;100329.39;713909;1203;115610;-77
2021/06/20 01:46:48;;;;;;;13.23;9.98;;;;;;;23.13;100.00;100325.62;713981;1203;115460;-77
2021/06/20 02:01:50;;;;;;;13.13;10.93;;;;;;;22.90;100.00;100318.19;714152;1181;114282;-77
2021/06/20 02:16:53;;;;;;;16.50;10.73;;;;;;;22.83;100.00;100328.09;713926;1178;114468;-76
2021/06/20 02:31:55;;;;;;;14.70;10.15;;;;;;;22.82;100.00;100329.11;714176;1202;115045;-76
2021/06/20 02:46:59;;;;;;;15.93;10.20;;;;;;;22.80;100.00;100315.16;714123;1180;116009;-78
2021/06/20 03:02:01;;;;;;;17.93;13.58;;;;;;;22.71;100.00;100326.11;714044;1202;114861;-76
2021/06/20 03:17:05;;;;;;;15.98;11.95;;;;;;;22.70;100.00;100318.28;714112;1201;115823;-77
2021/06/20 03:32:08;;;;;;;12.55;10.93;;;;;;;22.75;100.00;100324.65;713972;1202;115126;-78
2021/06/20 03:47:10;;;;;;;14.13;10.90;;;;;;;22.94;100.00;100328.22;713718;1202;115126;-78
2021/06/20 04:02:12;;;;;;;12.18;10.95;;;;;;;23.29;100.00;100318.13;713898;1202;115328;-77
2021/06/20 04:17:15;;;;;;;12.85;11.05;;;;;;;23.72;100.00;100325.36;713943;1202;115854;-76
2021/06/20 04:32:17;;;;;;;14.53;11.08;;;;;;;24.12;100.00;100324.95;713967;1201;114497;-76
2021/06/20 04:47:22;;;;;;;13.60;10.65;;;;;;;24.50;100.00;100334.59;713950;1203;115119;-78
2021/06/20 05:02:24;;;;;;;12.77;10.67;;;;;;;24.85;100.00;100320.53;717280;1166;115244;-74
2021/06/20 05:17:27;;;;;;;11.68;10.05;;;;;;;25.25;100.00;100327.14;713708;1202;114538;-75
2021/06/20 05:32:29;;;;;;;10.85;8.60;;;;;;;25.67;98.51;100345.03;713488;1202;115020;-75
2021/06/20 05:47:31;;;;;;;8.70;6.73;;;;;;;26.14;96.01;100371.89;713604;1203;114945;-76
2021/06/20 06:02:34;;;;;;;6.60;5.20;;;;;;;26.68;92.69;100374.30;713564;1201;113810;-75
2021/06/20 06:17:37;;;;;;;6.45;5.08;;;;;;;26.83;87.20;100395.34;713492;1206;115489;-75
2021/06/20 06:32:41;;;;;;;5.68;4.60;;;;;;;27.26;85.10;100403.88;713674;1203;114395;-74
2021/06/20 06:47:43;;;;;;;10.03;4.95;;;;;;;27.83;81.71;100385.94;713800;1201;114981;-79
2021/06/20 07:02:46;;;;;;;7.08;3.78;;;;;;;28.37;78.91;100367.27;713704;1202;114115;-80
2021/06/20 07:17:49;;;;;;;5.00;3.73;;;;;;;28.76;74.14;100370.92;713687;1205;114391;-75
2021/06/20 07:32:51;;;;;;;6.25;3.35;;;;;;;29.07;71.10;100358.53;713540;1177;114420;-77
2021/06/20 07:47:53;;;;;;;7.37;4.03;;;;;;;29.75;69.60;100338.22;713536;1177;114271;-81
2021/06/20 08:02:55;;;;;;;4.13;3.20;;;;;;;30.35;67.00;100336.91;714854;1203;113597;-89
2021/06/20 08:17:58;;;;;;;6.10;2.68;;;;;;;31.12;64.66;100343.53;714407;1206;113855;-82
2021/06/20 08:33:02;;;;;;;3.20;2.83;;;;;;;31.33;60.52;100350.58;715624;1204;113929;-78
2021/06/20 08:48:06;;;;;;;6.57;3.03;;;;;;;31.46;58.11;100342.96;717438;1192;113804;-77
2021/06/20 09:03:08;;;;;;;4.17;2.73;;;;;;;32.06;57.16;100317.85;714570;1202;115039;-76
2021/06/20 09:18:11;;;;;;;3.53;2.67;;;;;;;32.72;56.70;100322.14;719902;1202;113834;-75
2021/06/20 09:33:13;;;;;;;2.50;2.27;;;;;;;33.01;53.70;100316.73;715811;1183;113989;-82
2021/06/20 09:48:35;;;;;;;2.80;2.53;;;;;;;32.81;51.52;100296.00;715530;1202;113743;-81
2021/06/20 10:03:38;;;;;;;5.10;2.20;;;;;;;33.40;50.95;100249.80;715567;1202;114288;-83
2021/06/20 10:18:48;;;;;;;3.30;2.70;;;;;;;33.53;49.87;100229.27;715802;1202;114882;-82
2021/06/20 10:33:50;;;;;;;4.50;3.33;;;;;;;33.91;50.26;100214.95;714551;1182;113859;-81
2021/06/20 10:48:52;;;;;;;3.00;2.70;;;;;;;33.76;49.07;100227.63;713730;1184;113662;-79
2021/06/20 11:03:54;;;;;;;5.65;2.93;;;;;;;33.77;49.89;100176.75;713912;1202;114286;-80
2021/06/20 11:19:24;;;;;;;5.27;2.80;;;;;;;34.23;50.28;100191.61;713803;1202;115244;-79
2021/06/20 11:34:27;;;;;;;5.40;2.80;;;;;;;34.24;48.57;100172.27;714427;1202;113821;-79
2021/06/20 11:49:34;;;;;;;3.15;2.85;;;;;;;34.61;48.81;100159.68;714444;1202;115348;-84
2021/06/20 12:04:42;;;;;;;5.80;2.63;;;;;;;34.44;48.73;100162.17;714304;1201;115261;-77
2021/06/20 12:19:44;;;;;;;4.15;2.75;;;;;;;34.71;48.96;100163.33;714281;1201;113911;-73
2021/06/20 12:34:52;;;;;;;3.35;2.13;;;;;;;35.03;47.77;100169.83;729649;1201;113680;-74
2021/06/20 12:49:54;;;;;;;2.57;2.33;;;;;;;34.96;47.34;100156.61;723646;1202;115059;-72
2021/06/20 13:04:57;;;;;;;2.80;2.50;;;;;;;35.07;46.81;100147.14;715175;1202;114962;-71
2021/06/20 13:19:59;;;;;;;4.40;2.50;;;;;;;35.03;46.33;100137.13;714579;1201;113721;-72
2021/06/20 13:35:02;;;;;;;4.53;2.45;;;;;;;34.91;46.36;100124.84;714012;1202;114226;-74
2021/06/20 13:50:06;;;;;;;6.73;2.88;;;;;;;35.10;46.49;100127.45;714069;1202;114199;-72
2021/06/20 14:05:10;;;;;;;3.15;2.63;;;;;;;35.33;46.39;100116.61;713796;1202;114179;-74
2021/06/20 14:20:12;;;;;;;5.70;2.70;;;;;;;34.88;46.47;100098.19;713533;1180;113914;-73
2021/06/20 14:35:15;;;;;;;9.35;3.40;;;;;;;34.50;46.47;100107.33;713664;1206;114418;-73
2021/06/20 14:50:17;;;;;;;13.18;8.75;;;;;;;34.73;47.20;100102.00;713489;1202;113949;-72
2021/06/20 15:05:20;;;;;;;9.43;5.73;;;;;;;34.24;47.88;100074.30;713451;1205;113867;-72
2021/06/20 15:20:23;;;;;;;13.78;6.40;;;;;;;34.30;48.77;100051.33;713727;1202;114578;-73
2021/06/20 15:35:35;;;;;;;7.17;3.30;;;;;;;33.86;48.17;100051.83;713608;1177;114004;-73
2021/06/20 15:50:41;;;;;;;12.18;7.20;;;;;;;33.93;48.86;100017.70;713567;1205;113756;-72
2021/06/20 16:05:43;;;;;;;11.05;5.35;;;;;;;33.66;49.34;100013.75;713536;1202;115653;-72
2021/06/20 16:20:45;;;;;;;15.95;9.60;;;;;;;33.00;49.84;100015.52;713635;1196;113992;-73
2021/06/20 16:35:48;;;;;;;15.63;10.37;;;;;;;32.63;50.66;99996.13;713633;1206;115234;-75
2021/06/20 16:50:50;;;;;;;21.07;11.23;;;;;;;32.45;51.55;99983.31;713723;1205;113972;-73
2021/06/20 17:05:52;;;;;;;22.50;11.95;;;;;;;32.20;52.64;99971.64;714402;1176;114030;-69
2021/06/20 17:20:54;;;;;;;12.00;6.50;;;;;;;31.87;53.51;99979.53;713587;1179;114116;-72
2021/06/20 17:35:57;;;;;;;10.10;6.90;;;;;;;31.35;55.01;99966.36;713696;1178;113856;-72
2021/06/20 17:51:00;;;;;;;5.13;4.23;;;;;;;31.43;56.17;99964.95;713689;1202;113851;-74
2021/06/20 18:06:02;;;;;;;5.83;4.25;;;;;;;31.16;57.50;99939.16;714147;1202;114938;-75
2021/06/20 18:21:05;;;;;;;10.35;7.85;;;;;;;30.63;59.12;99942.41;715353;1177;113640;-75
2021/06/20 18:36:08;;;;;;;6.13;4.65;;;;;;;30.16;61.69;99933.59;713937;1202;114548;-75
2021/06/20 18:51:13;;;;;;;6.75;5.20;;;;;;;29.09;62.96;99950.58;714284;1205;113742;-72
2021/06/20 19:06:15;;;;;;;8.53;4.43;;;;;;;28.35;65.16;99970.25;715143;1167;115166;-73
2021/06/20 19:21:18;;;;;;;6.75;5.15;;;;;;;27.82;66.79;99988.17;715084;1202;114733;-72
2021/06/20 19:36:22;;;;;;;6.70;5.03;;;;;;;27.45;68.95;100008.61;715509;1205;114238;-71
2021/06/20 19:51:25;;;;;;;7.98;5.40;;;;;;;27.28;69.87;100024.83;715553;1202;115354;-71
2021/06/20 20:06:27;;;;;;;5.38;4.88;;;;;;;26.96;71.95;100047.05;715446;1175;113439;-70
2021/06/20 20:21:30;;;;;;;6.47;5.13;;;;;;;26.62;74.36;100055.20;715305;1202;114777;-71
2021/06/20 20:36:32;;;;;;;6.23;5.00;;;;;;;26.32;75.23;100053.67;716285;1177;114778;-70
2021/06/20 20:51:34;;;;;;;10.33;6.17;;;;;;;25.69;78.71;100032.19;717204;1202;115418;-71
2021/06/20 21:06:37;;;;;;;8.97;5.83;;;;;;;25.29;81.66;100033.05;716359;1200;115448;-70
2021/06/20 21:21:39;;;;;;;6.73;6.00;;;;;;;25.07;83.89;100036.39;716106;1202;115178;-69
2021/06/20 21:36:41;;;;;;;9.98;6.80;;;;;;;24.89;85.42;100028.47;715884;1200;114328;-70
2021/06/20 21:51:48;;;;;;;9.45;7.68;;;;;;;24.74;87.25;100013.72;715843;1200;115252;-70
2021/06/20 22:06:51;;;;;;;11.80;7.00;;;;;;;24.48;89.23;100006.12;715878;1200;115133;-70
2021/06/20 22:21:53;;;;;;;7.75;6.30;;;;;;;24.27;90.86;99994.95;715631;1180;114045;-70
2021/06/20 22:36:55;;;;;;;8.93;6.23;;;;;;;24.15;92.21;99978.04;715768;1202;114892;-72
2021/06/20 22:51:57;;;;;;;14.08;8.55;;;;;;;23.95;94.33;99956.95;715794;1202;115262;-71
2021/06/20 23:07:00;;;;;;;11.48;6.90;;;;;;;23.78;94.73;99956.78;715762;1202;115454;-70
2021/06/20 23:22:03;;;;;;;7.95;6.08;;;;;;;23.73;95.75;99952.14;715768;1202;115148;-72
2021/06/20 23:37:08;;;;;;;8.73;6.58;;;;;;;23.69;96.55;99957.13;715960;1180;113608;-70
2021/06/20 23:52:10;;;;;;;9.35;7.48;;;;;;;23.56;98.07;99946.63;715641;1202;114146;-72
